Time;durP1;ratioP1;P1;durP2;ratioP2;P2;SDS_P1;SDS_P2;PMS_P1;PMS_P2;Temp;Humidity;BMP_temperature;BMP_pressure;BME280_temperature;BME280_humidity;BME280_pressure;Samples;Min_cycle;Max_cycle;Signal;HPM_P1;HPM_P2
2022/03/12 00:01:17;;;;;;;;;;;;;;;1.61;71.40;99643.72;4973327;28;20357;-82
2022/03/12 00:03:42;;;;;;;;;;;;;;;1.62;71.46;99644.56;4969224;28;19930;-84
2022/03/12 00:06:09;;;;;;;;;;;;;;;1.61;71.67;99646.31;4973135;28;19925;-84
2022/03/12 00:08:42;;;;;;;;;;;;;;;1.65;71.82;99652.38;4970901;28;19933;-83
2022/03/12 00:11:28;;;;;;;;;;;;;;;1.65;72.22;99648.91;4971959;28;19918;-83
2022/03/12 00:13:54;;;;;;;;;;;;;;;1.67;72.60;99665.44;4972848;28;19930;-84
2022/03/12 00:16:23;;;;;;;;;;;;;;;1.66;73.12;99653.25;4971772;28;20048;-85
2022/03/12 00:18:53;;;;;;;;;;;;;;;1.69;73.54;99659.31;4968456;28;19922;-83
2022/03/12 00:21:19;;;;;;;;;;;;;;;1.69;73.77;99648.88;4971088;28;20385;-84
2022/03/12 00:23:45;;;;;;;;;;;;;;;1.72;74.31;99650.56;4971863;28;19929;-83
2022/03/12 00:26:11;;;;;;;;;;;;;;;1.72;74.46;99659.28;4969251;28;19945;-84
2022/03/12 00:28:37;;;;;;;;;;;;;;;1.75;74.27;99656.63;4971702;28;20349;-82
2022/03/12 00:31:02;;;;;;;;;;;;;;;1.76;74.17;99654.91;4972741;28;19930;-83
2022/03/12 00:33:27;;;;;;;;;;;;;;;1.76;74.04;99650.53;4970310;28;20422;-83
2022/03/12 00:35:53;;;;;;;;;;;;;;;1.76;73.92;99663.59;4972591;28;19937;-86
2022/03/12 00:38:21;;;;;;;;;;;;;;;1.76;73.71;99658.38;4971846;28;19926;-84
2022/03/12 00:40:47;;;;;;;;;;;;;;;1.78;73.76;99664.44;4971264;28;19925;-82
2022/03/12 00:43:14;;;;;;;;;;;;;;;1.79;73.84;99655.75;4971651;28;19995;-82
2022/03/12 00:45:40;;;;;;;;;;;;;;;1.79;73.68;99657.50;4973616;28;20322;-82
2022/03/12 00:48:06;;;;;;;;;;;;;;;1.80;73.77;99656.59;4964860;28;19933;-83
2022/03/12 00:50:31;;;;;;;;;;;;;;;1.84;73.64;99660.06;4971136;28;19922;-82
2022/03/12 00:52:57;;;;;;;;;;;;;;;2.08;76.32;99658.97;4972439;28;19948;-88
2022/03/12 00:55:22;;;;;;;;;;;;;;;2.26;79.46;99660.50;4969957;28;19922;-83
2022/03/12 00:57:47;;;;;;;;;;;;;;;2.30;82.06;99663.06;4972667;28;19950;-82
2022/03/12 01:00:15;;;;;;;;;;;;;;;2.34;84.13;99653.44;4972773;28;20021;-82
2022/03/12 01:02:40;;;;;;;;;;;;;;;2.35;85.87;99661.25;4968677;28;19949;-84
2022/03/12 01:05:05;;;;;;;;;;;;;;;2.38;87.92;99665.59;4970450;28;20018;-82
2022/03/12 01:07:31;;;;;;;;;;;;;;;2.39;89.45;99663.84;4973476;28;20341;-82
2022/03/12 01:09:56;;;;;;;;;;;;;;;2.42;90.88;99662.06;4973664;28;19937;-83
2022/03/12 01:12:22;;;;;;;;;;;;;;;2.58;93.22;99664.50;4973570;28;19965;-81
2022/03/12 01:14:47;;;;;;;;;;;;;;;2.57;94.68;99668.88;4972958;28;20365;-81
2022/03/12 01:17:12;;;;;;;;;;;;;;;2.58;95.54;99667.97;4970990;28;19922;-82
2022/03/12 01:19:38;;;;;;;;;;;;;;;2.59;96.51;99674.09;4972222;28;20413;-82
2022/03/12 01:22:05;;;;;;;;;;;;;;;2.54;97.46;99675.00;4972324;28;19922;-82
2022/03/12 01:24:30;;;;;;;;;;;;;;;2.59;98.47;99669.72;4969589;28;19970;-81
2022/03/12 01:26:56;;;;;;;;;;;;;;;2.60;99.46;99666.22;4973713;28;20298;-82
2022/03/12 01:29:21;;;;;;;;;;;;;;;2.57;100.00;99661.03;4972043;28;20372;-82
2022/03/12 04:27:38;;;;;;;;;;;;;;;2.03;100.00;99708.66;5130837;23;19926;-81
2022/03/12 04:30:04;;;;;;;;;;;;;;;2.04;100.00;99701.69;5020465;28;19922;-81
2022/03/12 04:32:30;;;;;;;;;;;;;;;2.02;100.00;99712.13;5023706;28;19928;-81
2022/03/12 04:34:55;;;;;;;;;;;;;;;2.06;100.00;99712.97;5019045;28;19932;-82
2022/03/12 04:37:20;;;;;;;;;;;;;;;2.00;100.00;99709.53;5019076;28;19928;-80
2022/03/12 04:39:48;;;;;;;;;;;;;;;1.98;100.00;99706.09;5023491;28;19917;-80
2022/03/12 04:42:16;;;;;;;;;;;;;;;1.97;100.00;99711.31;5020309;28;20004;-82
2022/03/12 04:44:42;;;;;;;;;;;;;;;1.95;100.00;99713.09;5020827;28;20100;-80
2022/03/12 04:47:10;;;;;;;;;;;;;;;1.99;100.00;99715.66;5018875;28;19996;-79
2022/03/12 04:49:35;;;;;;;;;;;;;;;2.02;100.00;99725.22;5021840;28;19921;-79
2022/03/12 04:52:00;;;;;;;;;;;;;;;1.95;100.00;99724.41;5023246;28;20344;-79
2022/03/12 04:54:30;;;;;;;;;;;;;;;1.92;100.00;99721.81;5023090;28;19917;-83
2022/03/12 04:56:56;;;;;;;;;;;;;;;1.94;100.00;99733.13;5021487;28;19963;-87
2022/03/12 04:59:22;;;;;;;;;;;;;;;1.91;100.00;99725.28;5022173;28;19962;-83
2022/03/12 05:01:47;;;;;;;;;;;;;;;1.88;100.00;99729.69;5022361;28;20345;-82
2022/03/12 05:04:12;;;;;;;;;;;;;;;1.85;100.00;99727.09;5021991;28;19933;-83
2022/03/12 05:06:38;;;;;;;;;;;;;;;1.90;100.00;99730.53;5021486;28;19918;-82
2022/03/12 05:09:04;;;;;;;;;;;;;;;1.84;99.90;99730.63;5021230;28;20391;-82
2022/03/12 05:11:31;;;;;;;;;;;;;;;1.78;99.47;99731.53;5020118;28;20330;-80
2022/03/12 05:13:56;;;;;;;;;;;;;;;1.84;99.16;99739.31;5022356;28;20523;-79
2022/03/12 05:16:22;;;;;;;;;;;;;;;1.85;98.69;99732.31;5020186;28;19953;-79
2022/03/12 05:18:47;;;;;;;;;;;;;;;1.93;99.43;99735.75;5022048;28;20372;-80
2022/03/12 05:21:12;;;;;;;;;;;;;;;2.12;100.00;99742.56;5021539;28;20325;-80
2022/03/12 05:23:38;;;;;;;;;;;;;;;2.19;100.00;99740.75;5022724;28;20004;-81
2022/03/12 05:26:05;;;;;;;;;;;;;;;2.18;100.00;99739.00;5020500;28;19923;-80
2022/03/12 05:28:32;;;;;;;;;;;;;;;2.12;100.00;99736.44;5022151;28;19925;-80
2022/03/12 05:30:58;;;;;;;;;;;;;;;2.12;100.00;99726.00;5020892;28;19956;-81
2022/03/12 05:33:24;;;;;;;;;;;;;;;2.04;100.00;99733.03;5018161;28;19940;-80
2022/03/12 05:35:53;;;;;;;;;;;;;;;2.05;100.00;99729.56;5021682;28;19921;-80
2022/03/12 05:38:18;;;;;;;;;;;;;;;2.03;100.00;99740.03;5020845;28;19921;-80
2022/03/12 05:40:43;;;;;;;;;;;;;;;2.00;100.00;99740.91;5019370;28;19975;-82
2022/03/12 05:43:12;;;;;;;;;;;;;;;1.98;100.00;99744.44;5020892;28;19927;-80
2022/03/12 05:45:37;;;;;;;;;;;;;;;1.99;99.90;99752.25;5020778;28;19944;-80
2022/03/12 05:48:04;;;;;;;;;;;;;;;1.93;99.61;99754.91;5018031;28;20360;-79
2022/03/12 05:50:29;;;;;;;;;;;;;;;1.96;99.07;99756.63;5018092;28;20379;-80
2022/03/12 05:52:54;;;;;;;;;;;;;;;1.91;98.58;99754.03;5021599;28;19924;-80
2022/03/12 05:55:21;;;;;;;;;;;;;;;1.89;98.36;99757.56;5017379;28;19968;-81
2022/03/12 08:38:21;;;;;;;;;;;;;;;1.73;81.65;99841.28;5457025;23;1983699;-84
2022/03/12 08:40:47;;;;;;;;;;;;;;;1.76;81.53;99843.00;5018419;28;19925;-87
2022/03/12 08:43:12;;;;;;;;;;;;;;;1.77;81.36;99836.88;5002058;28;19921;-88
2022/03/12 08:45:37;;;;;;;;;;;;;;;1.76;81.07;99848.25;5002654;28;19918;-84
2022/03/12 08:48:03;;;;;;;;;;;;;;;1.76;80.84;99846.47;5001394;28;19921;-89
2022/03/12 08:50:29;;;;;;;;;;;;;;;1.76;80.62;99843.88;5003645;28;19922;-90
2022/03/12 08:52:54;;;;;;;;;;;;;;;1.76;80.27;99836.03;4995410;28;19918;-91
2022/03/12 08:55:19;;;;;;;;;;;;;;;1.81;80.45;99843.84;4997335;28;19918;-88
2022/03/12 08:57:45;;;;;;;;;;;;;;;1.78;80.42;99842.09;4997526;28;20001;-89
2022/03/12 09:00:11;;;;;;;;;;;;;;;1.82;80.54;99845.59;5001874;28;19922;-82
2022/03/12 09:02:37;;;;;;;;;;;;;;;1.81;80.29;99836.88;5001942;28;19962;-83
2022/03/12 09:05:06;;;;;;;;;;;;;;;1.83;80.20;99839.47;5003562;28;19964;-82
2022/03/12 09:07:32;;;;;;;;;;;;;;;1.81;79.93;99846.47;5001143;28;20043;-83
2022/03/12 09:09:57;;;;;;;;;;;;;;;1.88;80.18;99842.91;4998739;28;20327;-84
2022/03/12 09:12:23;;;;;;;;;;;;;;;1.89;80.18;99841.19;5003151;28;19922;-82
2022/03/12 09:14:48;;;;;;;;;;;;;;;1.90;80.29;99843.78;5001423;28;20268;-83
2022/03/12 09:17:13;;;;;;;;;;;;;;;1.90;80.23;99845.53;5001642;28;20327;-83
2022/03/12 09:19:39;;;;;;;;;;;;;;;1.89;80.17;99838.56;5001788;28;19921;-82
2022/03/12 09:22:04;;;;;;;;;;;;;;;1.90;80.18;99843.78;4999661;28;20348;-83
2022/03/12 09:24:30;;;;;;;;;;;;;;;1.91;79.79;99848.13;4999706;28;20431;-82
2022/03/12 09:26:55;;;;;;;;;;;;;;;1.93;79.49;99845.50;5001518;28;19985;-83
2022/03/12 09:29:22;;;;;;;;;;;;;;;1.93;79.30;99846.38;5002422;28;19965;-83
2022/03/12 09:31:48;;;;;;;;;;;;;;;1.93;79.27;99838.56;5002605;28;20017;-80
2022/03/12 09:34:13;;;;;;;;;;;;;;;1.95;79.11;99834.16;5002339;28;20033;-84
2022/03/12 09:36:40;;;;;;;;;;;;;;;1.95;78.96;99841.16;5002658;28;20277;-81
2022/03/12 09:39:06;;;;;;;;;;;;;;;1.96;79.02;99841.16;5001024;28;19922;-82
2022/03/12 09:41:33;;;;;;;;;;;;;;;1.96;78.88;99840.25;4999678;28;19924;-84
2022/03/12 09:43:58;;;;;;;;;;;;;;;2.00;78.86;99842.84;4999920;28;19921;-83
2022/03/12 09:46:24;;;;;;;;;;;;;;;1.98;78.59;99839.38;5001412;28;19924;-83
2022/03/12 09:48:49;;;;;;;;;;;;;;;2.02;78.60;99837.59;5001790;28;19922;-83
2022/03/12 09:51:14;;;;;;;;;;;;;;;2.02;78.60;99831.50;5002575;28;19922;-82
2022/03/12 09:53:40;;;;;;;;;;;;;;;2.00;78.37;99819.31;4999638;28;19977;-83
2022/03/12 09:56:05;;;;;;;;;;;;;;;2.02;78.52;99818.44;5000800;28;19921;-83
2022/03/12 09:58:30;;;;;;;;;;;;;;;2.05;78.48;99818.44;4998142;28;19924;-83
2022/03/12 10:00:56;;;;;;;;;;;;;;;2.06;78.34;99807.06;5000713;28;19918;-83
2022/03/12 10:03:21;;;;;;;;;;;;;;;2.03;78.19;99807.97;4999595;28;19972;-84
2022/03/12 10:05:46;;;;;;;;;;;;;;;2.08;78.22;99807.94;5001164;28;20345;-84
2022/03/12 10:08:12;;;;;;;;;;;;;;;2.08;78.34;99811.41;4998491;28;19924;-84
2022/03/12 10:10:37;;;;;;;;;;;;;;;2.10;78.41;99812.25;5000314;28;19928;-83
2022/03/12 10:13:04;;;;;;;;;;;;;;;2.10;78.10;99808.78;4999239;28;19918;-84
2022/03/12 10:15:30;;;;;;;;;;;;;;;2.08;77.81;99805.34;4999475;28;19925;-82
2022/03/12 10:17:56;;;;;;;;;;;;;;;2.13;77.92;99811.38;5002703;28;20448;-83
2022/03/12 10:20:21;;;;;;;;;;;;;;;2.16;78.20;99808.75;4996516;28;19961;-83
2022/03/12 10:22:47;;;;;;;;;;;;;;;2.13;78.21;99811.38;5000481;28;19965;-84
2022/03/12 10:25:13;;;;;;;;;;;;;;;2.20;78.17;99817.44;5000897;28;19917;-85
2022/03/12 10:27:39;;;;;;;;;;;;;;;2.22;78.19;99813.03;5003887;28;19926;-83
2022/03/12 10:30:05;;;;;;;;;;;;;;;2.21;77.91;99814.81;4999572;28;19926;-85
2022/03/12 10:32:34;;;;;;;;;;;;;;;2.20;77.80;99818.28;5004326;28;19929;-84
2022/03/12 10:35:01;;;;;;;;;;;;;;;2.23;77.95;99815.66;5000290;28;20012;-83
2022/03/12 10:37:31;;;;;;;;;;;;;;;2.25;77.74;99810.41;5001214;28;20487;-82
2022/03/12 10:40:08;;;;;;;;;;;;;;;2.27;77.83;99819.97;5002043;28;19922;-84
2022/03/12 10:42:34;;;;;;;;;;;;;;;2.30;77.70;99813.88;5003596;28;20042;-84
2022/03/12 10:45:08;;;;;;;;;;;;;;;2.29;77.70;99812.13;5006340;28;19934;-83
2022/03/12 10:47:38;;;;;;;;;;;;;;;2.32;77.63;99802.50;5003490;28;19968;-84
2022/03/12 10:50:06;;;;;;;;;;;;;;;2.32;77.60;99809.50;5004133;28;19922;-85
2022/03/12 10:52:32;;;;;;;;;;;;;;;2.35;77.31;99807.72;5001720;28;19937;-83
2022/03/12 10:54:58;;;;;;;;;;;;;;;2.35;77.26;99812.94;5011533;28;19921;-83
2022/03/12 10:57:23;;;;;;;;;;;;;;;2.32;77.36;99802.50;5005479;28;19913;-84
2022/03/12 10:59:55;;;;;;;;;;;;;;;2.36;77.39;99805.94;5003821;28;20426;-84
2022/03/12 11:02:21;;;;;;;;;;;;;;;2.41;77.26;99803.28;5003806;28;19988;-85
2022/03/12 11:04:46;;;;;;;;;;;;;;;2.42;77.02;99799.81;5004556;28;20292;-84
2022/03/12 11:07:25;;;;;;;;;;;;;;;2.42;77.20;99797.19;5002145;28;19921;-83
2022/03/12 11:09:50;;;;;;;;;;;;;;;2.45;77.08;99791.94;5001417;28;19933;-84
2022/03/12 11:12:31;;;;;;;;;;;;;;;2.45;77.16;99797.16;5005156;28;19917;-84
2022/03/12 11:15:08;;;;;;;;;;;;;;;2.46;76.82;99804.13;5001961;28;19929;-84
2022/03/12 11:17:43;;;;;;;;;;;;;;;2.46;76.64;99809.38;5003376;28;20025;-82
2022/03/12 11:20:19;;;;;;;;;;;;;;;2.51;76.53;99804.97;5004525;28;19926;-84
2022/03/12 11:22:47;;;;;;;;;;;;;;;2.53;76.46;99800.56;4999952;28;19928;-85
2022/03/12 11:25:15;;;;;;;;;;;;;;;2.51;76.33;99802.34;5004548;28;19921;-87
2022/03/12 11:27:41;;;;;;;;;;;;;;;2.56;76.43;99799.69;5003725;28;19965;-86
2022/03/12 11:30:08;;;;;;;;;;;;;;;2.59;76.39;99799.66;5005035;28;19918;-86
2022/03/12 11:32:35;;;;;;;;;;;;;;;2.55;76.36;99806.63;5003543;28;19917;-84
2022/03/12 11:35:02;;;;;;;;;;;;;;;2.58;76.36;99809.22;5002599;28;20336;-87
2022/03/12 11:37:28;;;;;;;;;;;;;;;2.60;76.43;99807.50;5003651;28;19918;-87
2022/03/12 11:39:55;;;;;;;;;;;;;;;2.60;76.33;99798.75;5004029;28;19922;-87
2022/03/12 11:42:24;;;;;;;;;;;;;;;2.61;76.17;99796.13;5003787;28;19918;-82
2022/03/12 11:44:50;;;;;;;;;;;;;;;2.67;76.01;99801.28;5004930;28;19921;-85
2022/03/12 11:47:17;;;;;;;;;;;;;;;2.63;75.99;99789.16;5002694;28;20296;-87
2022/03/12 11:49:43;;;;;;;;;;;;;;;2.67;76.27;99793.44;5003440;28;19933;-87
2022/03/12 11:52:09;;;;;;;;;;;;;;;2.72;75.82;99790.78;5002144;28;19917;-85
2022/03/12 11:54:35;;;;;;;;;;;;;;;2.79;75.62;99786.34;5003073;28;20262;-85
2022/03/12 11:57:01;;;;;;;;;;;;;;;2.78;75.52;99784.63;5003027;28;19944;-85
2022/03/12 11:59:27;;;;;;;;;;;;;;;2.79;75.58;99788.97;5003053;28;20369;-86
2022/03/12 12:02:25;;;;;;;;;;;;;;;2.79;75.96;99788.97;5003253;28;20443;-83
2022/03/12 12:04:53;;;;;;;;;;;;;;;2.78;76.31;99777.63;4979199;28;19969;-84
2022/03/12 12:07:23;;;;;;;;;;;;;;;2.76;76.34;99775.91;4995760;28;20141;-84
2022/03/12 12:09:49;;;;;;;;;;;;;;;2.83;76.44;99780.19;5002704;28;20008;-87
2022/03/12 12:12:14;;;;;;;;;;;;;;;2.82;76.43;99773.22;5002637;28;20129;-85
2022/03/12 12:14:40;;;;;;;;;;;;;;;2.81;76.42;99774.97;5002789;28;20357;-84
2022/03/12 12:17:06;;;;;;;;;;;;;;;2.84;76.43;99769.72;5002983;28;19917;-85
2022/03/12 12:19:31;;;;;;;;;;;;;;;2.83;76.38;99764.50;5002742;28;20373;-86
2022/03/12 12:21:56;;;;;;;;;;;;;;;2.84;76.48;99761.88;5002374;28;19917;-85
2022/03/12 12:24:26;;;;;;;;;;;;;;;2.87;76.51;99759.22;4993077;28;19924;-85
2022/03/12 12:26:59;;;;;;;;;;;;;;;2.89;76.46;99761.81;5002530;28;20011;-84
2022/03/12 12:29:44;;;;;;;;;;;;;;;2.93;76.47;99760.88;5017140;28;20389;-85
2022/03/12 12:32:11;;;;;;;;;;;;;;;2.93;76.56;99760.03;5002539;28;19980;-83
2022/03/12 12:34:37;;;;;;;;;;;;;;;2.94;76.72;99756.53;4996719;28;19928;-85
2022/03/12 12:37:02;;;;;;;;;;;;;;;2.96;76.93;99758.22;5001892;28;19971;-82
2022/03/12 12:39:28;;;;;;;;;;;;;;;2.97;76.90;99759.09;5003124;28;19963;-86
2022/03/12 12:42:05;;;;;;;;;;;;;;;2.99;76.76;99760.81;4996208;28;19918;-85
2022/03/12 12:44:35;;;;;;;;;;;;;;;3.00;76.55;99759.03;5002261;28;19964;-83
2022/03/12 12:47:02;;;;;;;;;;;;;;;3.08;76.04;99765.06;5002662;28;19975;-83
2022/03/12 12:49:42;;;;;;;;;;;;;;;3.07;75.89;99763.34;5001795;28;19921;-82
2022/03/12 12:52:08;;;;;;;;;;;;;;;3.23;76.92;99766.63;4995775;28;19921;-85
2022/03/12 12:54:57;;;;;;;;;;;;;;;3.43;78.41;99768.94;5018153;28;19925;-83
2022/03/12 12:57:41;;;;;;;;;;;;;;;3.45;80.64;99762.81;4993072;28;19918;-82
2022/03/12 13:00:25;;;;;;;;;;;;;;;3.48;82.86;99754.06;5001614;28;20012;-84
2022/03/12 13:02:52;;;;;;;;;;;;;;;3.49;84.47;99752.28;5001398;28;19918;-85
2022/03/12 13:05:17;;;;;;;;;;;;;;;3.47;85.64;99752.31;5016502;28;19918;-84
2022/03/12 13:08:02;;;;;;;;;;;;;;;3.40;86.71;99754.16;5001443;28;19918;-84
2022/03/12 13:10:28;;;;;;;;;;;;;;;3.38;87.99;99752.44;5002887;28;19918;-84
2022/03/12 13:13:15;;;;;;;;;;;;;;;3.27;88.79;99750.84;5002885;28;19924;-86
2022/03/12 13:15:45;;;;;;;;;;;;;;;3.22;90.00;99754.41;5001441;28;20385;-84
2022/03/12 13:18:19;;;;;;;;;;;;;;;3.15;90.78;99750.16;5002719;28;20008;-83
2022/03/12 13:20:48;;;;;;;;;;;;;;;3.13;91.45;99749.28;5001590;28;19999;-83
2022/03/12 13:23:14;;;;;;;;;;;;;;;3.13;92.54;99744.94;5001640;28;19933;-84
2022/03/12 13:25:46;;;;;;;;;;;;;;;3.09;93.56;99738.88;5001927;28;19929;-83
2022/03/12 13:28:12;;;;;;;;;;;;;;;3.09;94.92;99731.03;5001026;28;20016;-82
2022/03/12 13:30:37;;;;;;;;;;;;;;;3.02;96.61;99737.22;5000339;28;19997;-83
2022/03/12 13:33:06;;;;;;;;;;;;;;;3.16;99.29;99729.19;5001131;28;20032;-82
2022/03/12 13:35:32;;;;;;;;;;;;;;;3.39;100.00;99731.47;5001558;28;19921;-82
2022/03/12 13:37:58;;;;;;;;;;;;;;;3.52;100.00;99723.44;5001171;28;19929;-81
2022/03/12 13:40:24;;;;;;;;;;;;;;;4.13;100.00;99717.19;5000868;28;19925;-80
2022/03/12 13:42:54;;;;;;;;;;;;;;;4.41;100.00;99719.31;5001251;28;20204;-81
2022/03/12 13:45:19;;;;;;;;;;;;;;;4.07;100.00;99708.56;5002825;28;19917;-81
2022/03/12 13:47:52;;;;;;;;;;;;;;;4.04;100.00;99714.72;5001649;28;19998;-82
2022/03/12 13:50:17;;;;;;;;;;;;;;;4.00;100.00;99710.41;5001170;28;20362;-82
2022/03/12 13:52:43;;;;;;;;;;;;;;;4.00;100.00;99711.31;5000859;28;19972;-81
2022/03/12 13:55:09;;;;;;;;;;;;;;;4.05;100.00;99708.56;5000926;28;19921;-81
2022/03/12 13:57:41;;;;;;;;;;;;;;;4.02;100.00;99710.41;5001218;28;20343;-82
2022/03/12 14:00:15;;;;;;;;;;;;;;;4.01;100.00;99704.28;5000828;28;20435;-83
2022/03/12 14:02:48;;;;;;;;;;;;;;;4.00;100.00;99692.06;5000805;28;19964;-82
2022/03/12 14:05:24;;;;;;;;;;;;;;;4.03;100.00;99689.38;5000190;28;20000;-83
2022/03/12 14:07:50;;;;;;;;;;;;;;;4.06;100.00;99691.09;4999334;28;19961;-81
2022/03/12 14:13:01;;;;;;;;;;;;;;;4.08;100.00;99699.81;5563493;23;20404;-80
2022/03/12 14:15:27;;;;;;;;;;;;;;;4.11;100.00;99697.13;4992323;28;19925;-80
2022/03/12 14:17:54;;;;;;;;;;;;;;;4.07;100.00;99693.69;5006660;28;19921;-80
2022/03/12 14:20:19;;;;;;;;;;;;;;;4.12;100.00;99694.47;4992224;28;19918;-81
2022/03/12 14:22:46;;;;;;;;;;;;;;;4.13;100.00;99684.84;5005849;28;19921;-81
2022/03/12 14:25:12;;;;;;;;;;;;;;;4.13;100.00;99688.34;4990946;28;20017;-82
2022/03/12 14:27:38;;;;;;;;;;;;;;;3.64;100.00;99683.94;5007363;28;20012;-82
2022/03/12 14:30:05;;;;;;;;;;;;;;;2.91;100.00;99689.38;4986013;28;19917;-82
2022/03/12 14:32:31;;;;;;;;;;;;;;;2.89;100.00;99678.91;4990993;28;19922;-81
2022/03/12 14:34:57;;;;;;;;;;;;;;;2.78;100.00;99679.97;5007049;28;20005;-80
2022/03/12 14:37:22;;;;;;;;;;;;;;;2.66;100.00;99681.81;4989630;28;20235;-82
2022/03/12 14:39:51;;;;;;;;;;;;;;;2.59;100.00;99667.09;4990944;28;20292;-82
2022/03/12 14:42:16;;;;;;;;;;;;;;;2.60;100.00;99673.19;4987218;28;19922;-82
2022/03/12 14:44:45;;;;;;;;;;;;;;;2.52;100.00;99665.41;5006987;28;19917;-81
2022/03/12 14:47:11;;;;;;;;;;;;;;;2.39;100.00;99669.06;4989776;28;19921;-81
2022/03/12 14:49:39;;;;;;;;;;;;;;;2.40;100.00;99673.44;5007224;28;20396;-83
2022/03/12 14:52:20;;;;;;;;;;;;;;;2.41;100.00;99664.69;4990405;28;19918;-82
2022/03/12 14:54:48;;;;;;;;;;;;;;;2.41;100.00;99654.22;4991309;28;19913;-82
2022/03/12 14:57:15;;;;;;;;;;;;;;;2.33;100.00;99659.53;5006851;28;19971;-84
2022/03/12 14:59:40;;;;;;;;;;;;;;;2.34;100.00;99654.28;4990605;28;19941;-85
2022/03/12 15:02:19;;;;;;;;;;;;;;;2.32;100.00;99656.06;5006735;28;20475;-83
2022/03/12 15:04:51;;;;;;;;;;;;;;;2.19;99.98;99659.72;5006117;28;19964;-84
2022/03/12 15:07:19;;;;;;;;;;;;;;;2.13;99.67;99649.31;5004959;28;19924;-81
2022/03/12 15:10:03;;;;;;;;;;;;;;;2.14;99.76;99644.06;4991975;28;20053;-82
2022/03/12 15:12:39;;;;;;;;;;;;;;;2.16;99.35;99647.53;4990363;28;19999;-82
2022/03/12 15:15:18;;;;;;;;;;;;;;;2.12;99.27;99647.56;4994755;28;20004;-82
2022/03/12 15:17:44;;;;;;;;;;;;;;;2.13;98.95;99651.94;4995519;28;19960;-82
2022/03/12 15:20:11;;;;;;;;;;;;;;;2.09;98.61;99653.72;4995187;28;19928;-83
2022/03/12 15:22:38;;;;;;;;;;;;;;;2.10;98.22;99647.59;4993226;28;19918;-81
2022/03/12 15:25:03;;;;;;;;;;;;;;;2.04;97.97;99654.63;4994909;28;19918;-80
2022/03/12 15:27:29;;;;;;;;;;;;;;;2.07;97.59;99651.97;4995296;28;19976;-82
2022/03/12 15:29:59;;;;;;;;;;;;;;;2.02;97.16;99659.00;4993827;28;19924;-84
2022/03/12 15:32:25;;;;;;;;;;;;;;;2.04;96.76;99657.25;4995110;28;19918;-82
2022/03/12 15:34:51;;;;;;;;;;;;;;;2.05;96.50;99662.44;4993812;28;19933;-84
2022/03/12 15:37:31;;;;;;;;;;;;;;;2.01;96.05;99660.78;5008539;28;19918;-83
2022/03/12 15:40:02;;;;;;;;;;;;;;;1.93;95.60;99658.22;5009987;28;19917;-83
2022/03/12 15:42:29;;;;;;;;;;;;;;;1.91;95.13;99654.75;4990653;28;19925;-84
2022/03/12 15:44:55;;;;;;;;;;;;;;;1.90;94.58;99654.75;4994700;28;19925;-82
2022/03/12 15:47:20;;;;;;;;;;;;;;;1.91;94.18;99659.97;5009542;28;20483;-81
2022/03/12 15:49:45;;;;;;;;;;;;;;;1.89;93.67;99645.22;4993444;28;20288;-84
2022/03/12 15:52:11;;;;;;;;;;;;;;;1.86;93.42;99645.22;4992090;28;19929;-81
2022/03/12 15:54:36;;;;;;;;;;;;;;;1.88;93.00;99649.53;5009827;28;19921;-82
2022/03/12 15:57:05;;;;;;;;;;;;;;;1.85;92.79;99646.09;4992820;28;19953;-81
2022/03/12 15:59:31;;;;;;;;;;;;;;;1.86;92.77;99640.84;4994621;28;19921;-83
2022/03/12 16:01:56;;;;;;;;;;;;;;;1.83;92.48;99638.28;4993172;28;20489;-87
2022/03/12 16:04:21;;;;;;;;;;;;;;;1.88;92.24;99636.47;4993080;28;20467;-82
2022/03/12 16:06:47;;;;;;;;;;;;;;;1.82;92.11;99639.19;4994446;28;19914;-81
2022/03/12 16:09:13;;;;;;;;;;;;;;;1.86;91.80;99640.00;4991686;28;19929;-82
2022/03/12 16:11:40;;;;;;;;;;;;;;;1.81;91.60;99632.22;4994471;28;19913;-87
2022/03/12 16:14:05;;;;;;;;;;;;;;;1.79;91.28;99631.38;5009288;28;19929;-82
2022/03/12 16:16:31;;;;;;;;;;;;;;;1.83;91.36;99625.22;4994406;28;20277;-81
2022/03/12 16:18:57;;;;;;;;;;;;;;;1.80;91.09;99625.25;5009251;28;19918;-82
2022/03/12 16:21:22;;;;;;;;;;;;;;;1.78;90.61;99625.25;4992738;28;19932;-81
2022/03/12 16:23:47;;;;;;;;;;;;;;;1.75;90.52;99633.13;4992716;28;19918;-81
2022/03/12 16:26:13;;;;;;;;;;;;;;;1.72;90.36;99622.69;4992413;28;20296;-80
2022/03/12 16:28:38;;;;;;;;;;;;;;;1.73;90.34;99631.41;4994131;28;19918;-86
2022/03/12 16:31:04;;;;;;;;;;;;;;;1.75;90.41;99627.03;4992836;28;19922;-85
2022/03/12 16:33:30;;;;;;;;;;;;;;;1.76;90.16;99631.41;4992510;28;20071;-86
2022/03/12 16:35:55;;;;;;;;;;;;;;;1.72;89.94;99625.31;4992513;28;19924;-86
2022/03/12 16:38:22;;;;;;;;;;;;;;;1.70;89.96;99628.84;4992581;28;19925;-87
2022/03/12 16:40:47;;;;;;;;;;;;;;;1.67;89.82;99628.84;4993310;28;20294;-81
2022/03/12 16:43:13;;;;;;;;;;;;;;;1.67;89.49;99621.88;4992349;28;19922;-82
2022/03/12 16:45:42;;;;;;;;;;;;;;;1.68;89.44;99620.16;4993529;28;20364;-81
2022/03/12 16:48:07;;;;;;;;;;;;;;;1.66;89.30;99616.66;5007532;28;20468;-79
2022/03/12 16:50:34;;;;;;;;;;;;;;;1.66;89.34;99617.56;4992476;28;20063;-81
2022/03/12 16:52:59;;;;;;;;;;;;;;;1.65;89.27;99615.81;4991683;28;19953;-80
2022/03/12 16:55:26;;;;;;;;;;;;;;;1.68;89.05;99613.19;5008317;28;19961;-79
2022/03/12 16:57:55;;;;;;;;;;;;;;;1.66;88.97;99616.66;4992616;28;19925;-81
2022/03/12 17:00:23;;;;;;;;;;;;;;;1.66;88.80;99619.28;4991828;28;19918;-79
2022/03/12 17:02:49;;;;;;;;;;;;;;;1.62;88.50;99616.69;5008216;28;19953;-82
2022/03/12 17:05:15;;;;;;;;;;;;;;;1.60;88.54;99617.59;4986832;28;20004;-82
2022/03/12 17:07:41;;;;;;;;;;;;;;;1.66;88.55;99612.34;5007126;28;19964;-83
2022/03/12 17:10:08;;;;;;;;;;;;;;;1.68;88.41;99617.53;5007573;28;19988;-84
2022/03/12 17:12:33;;;;;;;;;;;;;;;1.66;88.31;99617.56;4991637;28;20309;-82
2022/03/12 17:14:59;;;;;;;;;;;;;;;1.63;88.19;99622.81;4993209;28;20393;-82
2022/03/12 17:17:27;;;;;;;;;;;;;;;1.61;88.17;99616.72;4991601;28;19918;-79
2022/03/12 17:19:52;;;;;;;;;;;;;;;1.67;88.06;99618.41;5007901;28;20137;-79
2022/03/12 17:22:23;;;;;;;;;;;;;;;1.62;87.67;99616.69;4989890;28;20024;-82
2022/03/12 17:24:48;;;;;;;;;;;;;;;1.62;87.40;99619.31;4991891;28;19925;-79
2022/03/12 17:27:13;;;;;;;;;;;;;;;1.63;87.41;99617.59;4991338;28;19914;-79
2022/03/12 17:29:39;;;;;;;;;;;;;;;1.60;87.10;99615.84;4991714;28;19935;-79
2022/03/12 17:32:05;;;;;;;;;;;;;;;1.60;87.01;99612.38;4991361;28;19920;-78
2022/03/12 17:34:30;;;;;;;;;;;;;;;1.58;86.71;99615.00;4991371;28;20786;-78
2022/03/12 17:36:56;;;;;;;;;;;;;;;1.59;86.57;99615.88;4992324;28;20361;-79
2022/03/12 17:39:21;;;;;;;;;;;;;;;1.59;86.47;99616.72;4974140;28;20372;-80
2022/03/12 17:41:48;;;;;;;;;;;;;;;1.59;86.30;99614.09;4991549;28;20384;-80
2022/03/12 17:44:14;;;;;;;;;;;;;;;1.57;86.18;99615.88;4992538;28;20351;-80
2022/03/12 17:46:42;;;;;;;;;;;;;;;1.57;86.00;99613.25;4992525;28;19925;-79
2022/03/12 17:49:07;;;;;;;;;;;;;;;1.60;85.93;99612.38;4991782;28;19972;-79
2022/03/12 17:51:35;;;;;;;;;;;;;;;1.59;86.06;99614.09;4990974;28;20328;-79
2022/03/12 17:54:00;;;;;;;;;;;;;;;1.60;86.16;99623.69;4989572;28;19976;-78
2022/03/12 17:56:25;;;;;;;;;;;;;;;1.63;86.16;99617.59;4992541;28;19922;-84
2022/03/12 17:58:55;;;;;;;;;;;;;;;1.63;85.96;99614.97;4991397;28;19922;-81
2022/03/12 18:01:21;;;;;;;;;;;;;;;1.60;86.05;99610.63;4990603;28;19926;-83
2022/03/12 18:03:46;;;;;;;;;;;;;;;1.62;85.90;99618.44;5007569;28;19925;-84
2022/03/12 18:06:11;;;;;;;;;;;;;;;1.59;85.88;99621.94;4991309;28;19924;-84
2022/03/12 18:08:37;;;;;;;;;;;;;;;1.56;85.70;99616.75;4989659;28;19925;-80
2022/03/12 18:11:02;;;;;;;;;;;;;;;1.59;85.60;99616.72;4991294;28;19964;-81
2022/03/12 18:13:28;;;;;;;;;;;;;;;1.56;85.42;99615.88;4992239;28;19949;-81
2022/03/12 18:15:55;;;;;;;;;;;;;;;1.59;85.12;99621.94;4990952;28;19918;-80
2022/03/12 18:18:21;;;;;;;;;;;;;;;1.61;84.90;99620.22;4991483;28;20464;-81
2022/03/12 18:20:47;;;;;;;;;;;;;;;1.58;84.70;99620.22;5006388;28;20009;-83
2022/03/12 18:23:12;;;;;;;;;;;;;;;1.60;84.67;99620.22;4988823;28;20051;-80
2022/03/12 18:25:38;;;;;;;;;;;;;;;1.58;84.36;99620.22;4991117;28;19928;-82
2022/03/12 18:28:04;;;;;;;;;;;;;;;1.58;84.33;99624.56;4990348;28;20033;-81
2022/03/12 18:30:29;;;;;;;;;;;;;;;1.65;84.29;99625.41;4990035;28;19928;-80
2022/03/12 18:32:55;;;;;;;;;;;;;;;4.34;85.93;99615.38;4990752;28;19922;-79
2022/03/12 18:35:21;;;;;;;;;;;;;;;2.91;85.95;99618.69;4991055;28;19928;-79